Time;durP1;ratioP1;P1;durP2;ratioP2;P2;SDS_P1;SDS_P2;PMS_P1;PMS_P2;Temp;Humidity;BMP_temperature;BMP_pressure;BME280_temperature;BME280_humidity;BME280_pressure;Samples;Min_cycle;Max_cycle;Signal;HPM_P1;HPM_P2
2022/01/23 00:00:07;;;;;;;;;35.75;30.50;;;;;7.08;65.22;103326.09;6244749;22;45357;-86
2022/01/23 00:06:04;;;;;;;;;36.00;30.75;;;;;7.04;65.12;103332.91;6244478;22;45319;-86
2022/01/23 00:08:32;;;;;;;;;39.25;32.00;;;;;7.10;65.28;103340.19;6216128;22;47193;-87
2022/01/23 00:11:08;;;;;;;;;42.25;33.75;;;;;7.06;65.39;103336.50;6217028;22;45588;-87
2022/01/23 00:17:15;;;;;;;;;36.75;31.75;;;;;7.13;65.26;103340.34;6215645;22;45488;-84
2022/01/23 00:40:02;;;;;;;;;38.50;33.00;;;;;7.01;64.77;103284.72;5922307;23;45566;-89
2022/01/23 00:42:41;;;;;;;;;33.50;28.75;;;;;7.12;64.92;103317.59;5952004;23;45494;-86
2022/01/23 00:46:07;;;;;;;;;;;;;;;;;;;;;
2022/01/23 00:52:28;;;;;;;;;34.50;29.00;;;;;6.98;65.18;103313.38;6205834;22;45602;-86
2022/01/23 00:56:55;;;;;;;;;;;;;;;;;;;;;
2022/01/23 00:58:45;;;;;;;;;37.75;29.00;;;;;6.96;64.55;103310.66;6194542;22;45506;-86
2022/01/23 01:30:32;;;;;;;;;44.25;33.25;;;;;6.92;64.66;103269.41;6246256;22;45475;-88
2022/01/23 01:35:48;;;;;;;;;49.00;32.75;;;;;7.04;64.55;103270.03;6246192;22;45447;-88
2022/01/23 01:38:24;;;;;;;;;38.25;33.25;;;;;7.16;64.38;103295.06;6218698;22;45398;-87
2022/01/23 01:40:52;;;;;;;;;37.00;30.50;;;;;7.16;64.30;103297.69;6220680;22;45255;-92
2022/01/23 01:43:23;;;;;;;;;35.00;26.50;;;;;6.98;64.48;103272.34;6248168;22;45425;-94
2022/01/23 01:46:39;;;;;;;;;30.25;26.75;;;;;7.08;64.41;103286.81;6217091;22;47873;-88
2022/01/23 01:49:25;;;;;;;;;;;;;;;;;;;;;
2022/01/23 01:55:40;;;;;;;;;38.50;34.75;;;;;6.98;64.59;103277.59;6210946;22;45422;-86
2022/01/23 01:58:54;;;;;;;;;;;;;;;;;;;;;
2022/01/23 02:09:15;;;;;;;;;;;;;;;;;;;;;
2022/01/23 02:12:24;;;;;;;;;;;;;;;;;;;;;
2022/01/23 02:56:22;;;;;;;;;;;;;;;;;;;;;
2022/01/23 03:02:36;;;;;;;;;29.25;27.00;;;;;7.04;64.56;103241.22;6202324;22;45302;-87
2022/01/23 03:11:23;;;;;;;;;;;;;;;;;;;;;
2022/01/23 03:14:10;;;;;;;;;;;;;;;;;;;;;
2022/01/23 03:52:38;;;;;;;;;;;;;;;;;;;;;
2022/01/23 04:03:00;;;;;;;;;;;;;;;;;;;;;
2022/01/23 04:05:36;;;;;;;;;26.75;25.75;;;;;6.75;65.53;103208.31;5976382;23;72746;-87
2022/01/23 04:08:17;;;;;;;;;;;;;;;;;;;;;
2022/01/23 04:11:15;;;;;;;;;;;;;;;;;;;;;
2022/01/23 04:14:19;;;;;;;;;;;;;;;;;;;;;
2022/01/23 04:45:43;;;;;;;;;27.00;23.25;;;;;6.35;65.58;103187.00;6216737;22;45700;-87
2022/01/23 05:00:34;;;;;;;;;;;;;;;;;;;;;
2022/01/23 05:04:11;;;;;;;;;;;;;;;;;;;;;
2022/01/23 05:06:56;;;;;;;;;;;;;;;;;;;;;
2022/01/23 05:10:05;;;;;;;;;28.25;26.50;;;;;6.52;66.10;103217.59;6213398;22;75122;-86
2022/01/23 05:12:45;;;;;;;;;27.75;24.75;;;;;6.39;66.58;103191.59;6217287;22;45174;-87
2022/01/23 05:15:35;;;;;;;;;29.00;28.75;;;;;6.55;66.27;103209.91;6217357;22;45463;-86
2022/01/23 05:19:19;;;;;;;;;26.50;22.25;;;;;6.62;66.20;103213.72;6178261;22;45630;-87
2022/01/23 05:28:53;;;;;;;;;;;;;;;;;;;;;
2022/01/23 05:31:30;;;;;;;;;36.00;27.75;;;;;6.75;65.45;103221.41;6064383;23;73422;-87
2022/01/23 05:34:25;;;;;;;;;;;;;;;;;;;;;
2022/01/23 05:48:08;;;;;;;;;;;;;;;;;;;;;
2022/01/23 05:54:27;;;;;;;;;;;;;;;;;;;;;
2022/01/23 06:01:02;;;;;;;;;;;;;;;;;;;;;
2022/01/23 06:04:30;;;;;;;;;;;;;;;;;;;;;
2022/01/23 06:07:31;;;;;;;;;;;;;;;;;;;;;
2022/01/23 06:34:47;;;;;;;;;;;;;;;;;;;;;
2022/01/23 06:41:13;;;;;;;;;27.25;19.25;;;;;6.67;65.02;103227.97;5963686;23;45560;-87
2022/01/23 06:44:11;;;;;;;;;;;;;;;;;;;;;
2022/01/23 06:50:39;;;;;;;;;;;;;;;;;;;;;
2022/01/23 07:00:22;;;;;;;;;;;;;;;;;;;;;
2022/01/23 07:03:15;;;;;;;;;15.75;14.75;;;;;6.41;64.85;103226.56;6216693;22;72623;-87
2022/01/23 07:06:19;;;;;;;;;24.25;19.25;;;;;6.55;64.50;103241.31;6216276;22;47442;-87
2022/01/23 07:34:23;;;;;;;;;12.50;10.25;;;;;6.32;64.79;103203.44;5836500;24;46094;-86
2022/01/23 07:37:33;;;;;;;;;25.25;20.75;;;;;6.52;64.92;103246.38;5969943;23;45320;-85
2022/01/23 07:40:02;;;;;;;;;24.25;21.75;;;;;6.51;65.37;103256.75;6154701;22;45259;-87
2022/01/23 07:42:30;;;;;;;;;21.00;17.50;;;;;6.36;65.22;103217.56;6218021;22;45335;-88
2022/01/23 07:45:02;;;;;;;;;21.25;17.25;;;;;6.36;65.00;103218.50;6190764;22;46733;-88
2022/01/23 07:47:43;;;;;;;;;22.50;18.00;;;;;6.49;64.94;103240.97;6190065;22;45429;-86
2022/01/23 07:50:16;;;;;;;;;21.00;17.00;;;;;6.31;65.26;103203.38;6190282;22;45244;-86
2022/01/23 07:52:46;;;;;;;;;19.75;13.50;;;;;6.39;65.22;103217.75;6218246;22;45224;-87
2022/01/23 07:55:14;;;;;;;;;22.50;20.25;;;;;6.43;64.86;103222.34;6191068;22;47401;-86
2022/01/23 07:57:43;;;;;;;;;19.25;16.75;;;;;6.37;65.06;103215.06;6220893;22;44781;-86
2022/01/23 08:00:13;;;;;;;;;15.50;12.50;;;;;6.38;64.65;103236.88;6219884;22;45219;-86
2022/01/23 08:02:39;;;;;;;;;18.75;13.25;;;;;6.49;64.96;103253.16;6191288;22;45732;-86
2022/01/23 08:05:09;;;;;;;;;25.00;18.75;;;;;6.45;64.58;103264.28;6190083;22;47761;-86
2022/01/23 08:07:40;;;;;;;;;22.00;17.50;;;;;6.44;64.33;103263.38;6189817;22;45372;-85
2022/01/23 08:13:08;;;;;;;;;17.25;16.00;;;;;6.39;64.81;103259.63;6152935;23;45419;-84
2022/01/23 08:15:46;;;;;;;;;;;;;;;;;;;;;
2022/01/23 08:21:18;;;;;;;;;;;;;;;;;;;;;
2022/01/23 08:23:57;;;;;;;;;;;;;;;;;;;;;
2022/01/23 08:26:53;;;;;;;;;17.00;14.00;;;;;6.42;64.32;103259.78;6193813;22;45897;-84
2022/01/23 08:29:39;;;;;;;;;;;;;;;;;;;;;
2022/01/23 08:35:10;;;;;;;;;;;;;;;;;;;;;
2022/01/23 08:37:42;;;;;;;;;16.50;13.75;;;;;6.47;64.45;103273.09;6216629;22;74051;-85
2022/01/23 08:40:44;;;;;;;;;;;;;;;;;;;;;
2022/01/23 08:43:17;;;;;;;;;21.75;19.00;;;;;6.37;64.79;103267.38;6215642;22;45175;-85
2022/01/23 08:45:58;;;;;;;;;25.50;21.00;;;;;6.49;64.58;103279.31;6189655;22;45216;-83
2022/01/23 08:48:42;;;;;;;;;;;;;;;;;;;;;
2022/01/23 08:51:13;;;;;;;;;33.25;29.25;;;;;6.48;64.60;103267.06;6215766;22;72006;-87
2022/01/23 08:53:59;;;;;;;;;27.75;22.50;;;;;6.30;64.26;103240.81;6191192;22;45178;-85
2022/01/23 09:00:34;;;;;;;;;27.75;20.50;;;;;6.42;64.28;103243.19;6200714;22;45605;-86
2022/01/23 09:06:08;;;;;;;;;29.25;23.00;;;;;6.56;64.67;103279.75;6200521;22;45391;-86
2022/01/23 09:08:36;;;;;;;;;21.25;17.75;;;;;6.56;64.61;103273.59;6191609;22;45522;-85
2022/01/23 09:11:24;;;;;;;;;22.75;21.75;;;;;6.55;64.07;103271.81;6217834;22;46020;-85
2022/01/23 09:14:10;;;;;;;;;32.25;26.75;;;;;6.57;64.37;103284.13;6217437;22;45181;-83
2022/01/23 09:17:15;;;;;;;;;32.75;28.25;;;;;6.53;63.94;103278.69;6217257;22;45107;-84
2022/01/23 09:19:47;;;;;;;;;37.50;29.75;;;;;6.50;64.23;103268.94;6217154;22;45499;-84
2022/01/23 09:22:12;;;;;;;;;31.25;26.50;;;;;6.48;64.09;103265.34;6217002;22;45427;-82
2022/01/23 09:24:41;;;;;;;;;30.25;25.25;;;;;6.60;63.99;103281.72;6189380;22;45393;-82
2022/01/23 09:27:18;;;;;;;;;32.00;25.50;;;;;6.58;64.15;103285.97;6189825;22;45338;-82
2022/01/23 09:29:48;;;;;;;;;32.75;30.25;;;;;6.49;64.04;103274.97;6189601;22;45703;-81
2022/01/23 09:32:22;;;;;;;;;38.75;34.50;;;;;6.42;64.00;103251.03;6216792;22;45420;-81
2022/01/23 09:34:51;;;;;;;;;34.75;28.50;;;;;6.41;64.06;103255.34;6189866;22;45364;-82
2022/01/23 09:37:25;;;;;;;;;31.50;29.75;;;;;6.55;64.33;103277.94;6189830;22;45196;-84
2022/01/23 09:40:01;;;;;;;;;33.75;30.00;;;;;6.59;64.36;103284.25;6189137;22;45258;-84
2022/01/23 09:42:35;;;;;;;;;27.25;24.50;;;;;6.50;64.15;103265.44;6216732;22;46417;-85
2022/01/23 09:45:10;;;;;;;;;30.00;26.00;;;;;6.47;63.79;103279.25;6189547;22;45932;-84
2022/01/23 09:47:39;;;;;;;;;26.00;23.25;;;;;6.36;64.11;103262.06;6189672;22;45235;-84
2022/01/23 09:50:13;;;;;;;;;21.25;20.75;;;;;6.39;63.66;103273.59;6216806;22;45604;-84
2022/01/23 09:52:42;;;;;;;;;26.50;23.75;;;;;6.41;64.25;103289.38;6189791;22;47087;-84
2022/01/23 09:55:11;;;;;;;;;28.50;24.75;;;;;6.29;64.13;103268.69;6190342;22;45325;-84
2022/01/23 09:57:48;;;;;;;;;20.50;20.50;;;;;6.36;63.88;103275.13;6217356;22;45226;-84
2022/01/23 10:00:26;;;;;;;;;23.25;19.00;;;;;6.23;63.92;103257.91;6189563;22;45385;-84
2022/01/23 10:02:52;;;;;;;;;24.25;20.50;;;;;6.45;64.04;103290.47;6214884;22;48096;-84
2022/01/23 10:05:21;;;;;;;;;27.50;23.00;;;;;6.28;64.15;103265.97;6217250;22;45356;-84
2022/01/23 10:07:49;;;;;;;;;32.00;29.50;;;;;6.39;63.85;103277.94;6189457;22;45206;-84
2022/01/23 10:10:21;;;;;;;;;23.25;19.00;;;;;6.40;63.96;103279.72;6214365;22;45194;-84
2022/01/23 10:13:04;;;;;;;;;34.75;29.50;;;;;6.26;63.94;103258.06;6215407;22;45281;-85
2022/01/23 10:15:40;;;;;;;;;24.25;21.25;;;;;6.29;63.79;103262.56;6189201;22;45679;-82
2022/01/23 10:18:11;;;;;;;;;26.75;25.00;;;;;6.34;63.93;103284.63;6216709;22;45233;-82
2022/01/23 10:20:51;;;;;;;;;27.00;24.25;;;;;6.23;64.10;103264.81;6190284;22;45250;-85
2022/01/23 10:23:21;;;;;;;;;30.50;27.00;;;;;6.25;64.16;103276.25;6191184;22;46434;-82
2022/01/23 10:25:52;;;;;;;;;25.75;24.00;;;;;6.37;63.70;103290.03;6217437;22;45293;-81
2022/01/23 10:28:23;;;;;;;;;27.50;25.25;;;;;6.36;63.77;103288.22;6216098;22;45226;-81
2022/01/23 10:30:54;;;;;;;;;28.00;22.50;;;;;6.25;63.80;103257.97;6216594;22;45285;-82
2022/01/23 10:33:32;;;;;;;;;35.00;27.50;;;;;6.32;64.13;103275.81;6189687;22;47120;-82
2022/01/23 10:36:16;;;;;;;;;33.50;30.00;;;;;6.44;64.24;103283.41;6178065;22;45475;-82
2022/01/23 10:38:58;;;;;;;;;36.25;32.00;;;;;6.51;64.16;103290.78;6189296;22;45345;-83
2022/01/23 10:41:48;;;;;;;;;29.00;23.50;;;;;6.46;64.11;103284.41;6189822;22;45329;-81
2022/01/23 10:49:55;;;;;;;;;22.50;18.50;;;;;6.53;63.91;103291.78;6216340;22;45198;-82
2022/01/23 10:52:26;;;;;;;;;21.25;18.75;;;;;6.47;63.78;103281.88;6217424;22;45110;-80
2022/01/23 10:54:59;;;;;;;;;26.75;21.25;;;;;6.40;63.71;103256.19;6189604;22;47683;-81
2022/01/23 10:57:33;;;;;;;;;24.25;19.00;;;;;6.56;63.59;103276.22;6191964;22;45568;-85
2022/01/23 11:00:23;;;;;;;;;;;;;;;;;;;;;
2022/01/23 11:02:49;;;;;;;;;28.75;23.00;;;;;6.46;63.97;103253.00;6185918;23;71943;-86
2022/01/23 11:05:17;;;;;;;;;24.75;21.00;;;;;6.48;63.85;103257.50;6183977;23;47097;-86
2022/01/23 11:07:51;;;;;;;;;19.25;19.25;;;;;6.44;64.08;103252.00;6158381;23;45437;-88
2022/01/23 11:10:23;;;;;;;;;19.50;17.50;;;;;6.53;63.87;103274.34;6186515;23;45293;-86
2022/01/23 11:18:34;;;;;;;;;21.75;19.00;;;;;6.43;64.34;103242.38;6188500;23;45273;-85
2022/01/23 11:21:16;;;;;;;;;26.25;16.25;;;;;6.60;64.51;103257.22;6181948;23;45322;-83
2022/01/23 11:23:41;;;;;;;;;19.00;19.00;;;;;6.47;64.43;103226.00;6184289;23;45204;-84
2022/01/23 11:26:18;;;;;;;;;26.50;22.00;;;;;6.66;64.26;103257.59;6183783;23;45309;-85
2022/01/23 11:28:46;;;;;;;;;22.25;20.00;;;;;6.54;64.26;103218.56;6182448;23;45269;-81
2022/01/23 11:31:17;;;;;;;;;16.25;15.00;;;;;6.71;64.26;103239.47;6158519;23;45753;-84
2022/01/23 11:33:45;;;;;;;;;23.50;21.25;;;;;6.66;64.05;103235.75;6184535;23;45357;-84
2022/01/23 11:36:14;;;;;;;;;25.75;21.75;;;;;6.45;63.83;103198.88;6185386;23;45448;-85
2022/01/23 11:38:44;;;;;;;;;26.25;24.75;;;;;6.40;63.59;103198.63;6182612;23;45445;-86
2022/01/23 11:55:36;;;;;;;;;19.25;17.00;;;;;6.37;64.19;103228.13;6142993;23;45470;-84
2022/01/23 11:58:26;;;;;;;;;21.50;17.25;;;;;6.31;64.32;103229.53;6186007;23;46249;-84
2022/01/23 12:01:24;;;;;;;;;28.00;21.75;;;;;6.33;64.50;103222.66;6181903;23;45337;-85
2022/01/23 12:04:18;;;;;;;;;;;;;;;;;;;;;
2022/01/23 12:07:08;;;;;;;;;26.75;21.50;;;;;6.36;64.78;103205.41;6185262;23;73186;-84
2022/01/23 12:09:52;;;;;;;;;;;;;;;;;;;;;
2022/01/23 12:12:42;;;;;;;;;20.50;18.25;;;;;6.46;64.31;103208.50;6192081;23;71363;-84
2022/01/23 12:18:35;;;;;;;;;24.00;17.50;;;;;6.33;63.97;103172.94;6187436;23;45427;-84
2022/01/23 12:21:03;;;;;;;;;24.25;20.00;;;;;6.30;64.24;103165.84;6183449;23;47522;-85
2022/01/23 12:23:31;;;;;;;;;22.25;17.75;;;;;6.42;64.11;103180.41;6187143;23;45601;-83
2022/01/23 12:26:06;;;;;;;;;17.50;14.75;;;;;6.37;64.12;103185.38;6184229;23;45262;-83
2022/01/23 12:28:43;;;;;;;;;20.00;17.00;;;;;6.43;63.93;103180.47;6183726;23;46046;-83
2022/01/23 12:31:15;;;;;;;;;16.25;16.25;;;;;6.53;63.96;103189.72;6183028;23;46497;-84
2022/01/23 12:33:42;;;;;;;;;22.25;17.50;;;;;6.60;63.86;103186.56;6185727;23;45361;-82
2022/01/23 12:36:31;;;;;;;;;20.50;18.25;;;;;6.59;63.68;103180.44;6186139;23;45306;-84
2022/01/23 12:39:18;;;;;;;;;18.50;17.00;;;;;6.55;63.71;103157.56;6158189;23;45439;-83
2022/01/23 12:41:47;;;;;;;;;20.75;18.75;;;;;6.65;63.57;103172.00;6185955;23;46008;-83
2022/01/23 12:44:30;;;;;;;;;18.50;18.25;;;;;6.68;63.35;103169.53;6183660;23;45245;-83
2022/01/23 12:46:58;;;;;;;;;22.25;20.50;;;;;6.69;63.22;103171.34;6158418;23;45565;-83
2022/01/23 12:49:45;;;;;;;;;17.75;12.50;;;;;6.51;63.06;103134.66;6183682;23;45426;-84
2022/01/23 12:55:18;;;;;;;;;22.75;19.50;;;;;6.64;62.95;103144.03;6185540;23;45399;-86
2022/01/23 12:57:54;;;;;;;;;16.00;15.00;;;;;6.74;62.92;103158.50;6158999;23;45359;-85
2022/01/23 13:00:27;;;;;;;;;23.25;18.00;;;;;6.74;62.79;103154.19;6184419;23;45390;-84
2022/01/23 13:03:22;;;;;;;;;23.00;20.75;;;;;6.71;63.07;103125.22;6185629;23;45534;-86
2022/01/23 13:05:48;;;;;;;;;21.50;20.00;;;;;6.78;62.82;103137.78;6184630;23;45399;-84
2022/01/23 13:08:48;;;;;;;;;24.25;20.25;;;;;6.62;62.97;103103.81;6158492;23;45305;-83
2022/01/23 13:11:50;;;;;;;;;22.50;19.00;;;;;6.80;62.80;103127.41;6156974;23;45575;-83
2022/01/23 13:36:30;;;;;;;;;;;;;;;;;;;;;
2022/01/23 13:39:06;;;;;;;;;;;;;;;;;;;;;
2022/01/23 13:58:03;;;;;;;;;;;;;;;;;;;;;
2022/01/23 14:00:48;;;;;;;;;;;;;;;;;;;;;
2022/01/23 14:03:30;;;;;;;;;;;;;;;;;;;;;
2022/01/23 14:06:07;;;;;;;;;28.00;27.25;;;;;7.06;62.41;103064.13;6184558;23;72746;-84
2022/01/23 14:09:05;;;;;;;;;;;;;;;;;;;;;
2022/01/23 14:12:15;;;;;;;;;;;;;;;;;;;;;
2022/01/23 14:15:02;;;;;;;;;;;;;;;;;;;;;
2022/01/23 14:17:42;;;;;;;;;23.75;21.50;;;;;6.99;62.48;103048.94;6197186;23;72096;-85
2022/01/23 14:20:23;;;;;;;;;;;;;;;;;;;;;
2022/01/23 14:23:02;;;;;;;;;;;;;;;;;;;;;
2022/01/23 14:26:09;;;;;;;;;26.00;23.00;;;;;7.05;62.58;103048.31;6200370;22;74833;-85
2022/01/23 14:29:09;;;;;;;;;35.00;28.25;;;;;7.14;62.66;103055.75;6173412;23;45337;-85
2022/01/23 14:31:58;;;;;;;;;30.00;22.00;;;;;6.94;62.42;103018.09;6096874;23;45643;-84
2022/01/23 14:34:41;;;;;;;;;27.25;25.25;;;;;6.91;62.58;103026.72;6116617;23;45529;-86
2022/01/23 14:37:09;;;;;;;;;29.25;22.75;;;;;6.97;62.35;103023.50;6182844;23;47159;-85
2022/01/23 14:39:36;;;;;;;;;27.00;23.00;;;;;6.95;62.42;103017.28;6185327;23;45220;-83
2022/01/23 14:42:19;;;;;;;;;30.50;27.50;;;;;7.01;62.52;103031.56;6181918;23;45278;-84
2022/01/23 14:44:46;;;;;;;;;29.00;26.50;;;;;7.00;62.73;103016.69;6183303;23;45583;-83
2022/01/23 14:47:21;;;;;;;;;36.50;29.00;;;;;7.13;62.61;103030.34;6160812;23;47384;-82
2022/01/23 14:49:58;;;;;;;;;19.00;16.75;;;;;7.13;62.40;103028.63;6181644;23;45531;-82
2022/01/23 14:52:35;;;;;;;;;37.25;30.50;;;;;7.19;62.59;103035.88;6182638;23;45430;-83
2022/01/23 14:55:06;;;;;;;;;31.75;27.75;;;;;7.17;62.40;103033.19;6183646;23;45396;-82
2022/01/23 14:57:33;;;;;;;;;33.75;29.00;;;;;7.18;62.17;103018.38;6156134;23;48090;-82
2022/01/23 15:00:07;;;;;;;;;36.50;29.75;;;;;7.20;62.35;103024.59;6181684;23;45443;-83
2022/01/23 15:02:36;;;;;;;;;28.75;23.25;;;;;7.31;62.36;103040.81;6184480;23;45373;-84
2022/01/23 15:05:03;;;;;;;;;34.25;29.50;;;;;7.22;62.23;103030.81;6181534;23;45408;-82
2022/01/23 15:07:43;;;;;;;;;31.75;29.25;;;;;7.31;62.16;103043.44;6157461;23;46280;-88
2022/01/23 15:10:10;;;;;;;;;28.75;24.25;;;;;7.16;62.15;103018.28;6182052;23;45465;-83
2022/01/23 15:12:38;;;;;;;;;27.25;24.00;;;;;7.21;62.22;103044.72;6156340;23;45342;-83
2022/01/23 15:15:09;;;;;;;;;34.75;24.50;;;;;7.02;62.16;103009.78;6183141;23;45321;-86
2022/01/23 15:17:37;;;;;;;;;55.25;46.00;;;;;7.07;62.29;103003.03;6183166;23;47944;-84
2022/01/23 15:20:18;;;;;;;;;34.00;30.00;;;;;7.22;62.23;103029.06;6157797;23;45612;-86
2022/01/23 15:22:44;;;;;;;;;38.75;33.00;;;;;7.16;62.05;103027.88;6183445;23;45353;-83
2022/01/23 15:25:18;;;;;;;;;38.00;30.50;;;;;7.12;62.08;103026.84;6156514;23;45498;-87
2022/01/23 15:28:20;;;;;;;;;30.25;27.50;;;;;7.17;62.20;103025.34;6158393;23;46391;-88
2022/01/23 15:35:20;;;;;;;;;;;;;;;;;;;;;
2022/01/23 15:49:07;;;;;;;;;37.25;35.25;;;;;6.93;62.13;102996.25;5938099;23;45471;-84
2022/01/23 15:51:46;;;;;;;;;;;;;;;;;;;;;
2022/01/23 15:54:12;;;;;;;;;37.00;27.25;;;;;7.03;62.21;103016.84;6062711;23;74427;-83
2022/01/23 15:56:51;;;;;;;;;38.50;29.75;;;;;6.87;62.42;102987.22;6108208;23;45572;-84
2022/01/23 16:03:14;;;;;;;;;30.25;27.50;;;;;7.00;62.11;103018.38;6115691;23;45381;-85
2022/01/23 16:09:51;;;;;;;;;37.00;31.50;;;;;6.83;62.04;103000.16;6091783;23;45472;-86
2022/01/23 16:26:39;;;;;;;;;37.75;35.50;;;;;6.87;61.78;102989.81;5874770;24;46439;-82
2022/01/23 16:29:51;;;;;;;;;28.75;28.50;;;;;6.90;61.85;102997.84;6009385;23;45426;-83
2022/01/23 16:32:32;;;;;;;;;29.50;26.25;;;;;6.98;61.98;103013.09;6121530;23;45275;-81
2022/01/23 16:35:14;;;;;;;;;35.00;32.00;;;;;7.02;61.77;103022.88;6111236;23;45394;-82
2022/01/23 16:38:11;;;;;;;;;34.00;31.75;;;;;6.80;61.90;102988.66;6176723;23;45152;-82
2022/01/23 16:40:57;;;;;;;;;32.75;27.25;;;;;6.92;62.02;103006.66;6184975;23;45281;-83
2022/01/23 16:44:05;;;;;;;;;;;;;;;;;;;;;
2022/01/23 16:47:15;;;;;;;;;27.00;25.50;;;;;6.95;62.03;103009.41;6178039;23;72752;-81
2022/01/23 16:50:22;;;;;;;;;;;;;;;;;;;;;
2022/01/23 16:53:18;;;;;;;;;31.25;28.25;;;;;6.98;61.93;103022.69;6181858;23;72885;-83
2022/01/23 16:59:30;;;;;;;;;;;;;;;;;;;;;
2022/01/23 17:02:46;;;;;;;;;;;;;;;;;;;;;
2022/01/23 17:05:41;;;;;;;;;30.50;24.50;;;;;6.92;62.00;103006.66;6179773;23;72848;-82
2022/01/23 17:08:28;;;;;;;;;;;;;;;;;;;;;
2022/01/23 17:11:24;;;;;;;;;38.50;34.50;;;;;6.95;62.01;103025.13;6183789;23;72735;-82
2022/01/23 17:14:35;;;;;;;;;39.00;34.50;;;;;6.84;61.94;103001.97;6185415;23;45260;-82
2022/01/23 18:04:48;;;;;;;;;36.00;30.00;;;;;6.99;61.91;103020.13;6342866;22;45322;-81
2022/01/23 18:11:25;;;;;;;;;;;;;;;;;;;;;
2022/01/23 18:15:14;;;;;;;;;;;;;;;;;;;;;
2022/01/23 18:17:45;;;;;;;;;;;;;;;;;;;;;
2022/01/23 18:21:13;;;;;;;;;;;;;;;;;;;;;
2022/01/23 18:23:56;;;;;;;;;;;;;;;;;;;;;
2022/01/23 18:27:26;;;;;;;;;;;;;;;;;;;;;
2022/01/23 18:30:08;;;;;;;;;43.25;35.50;;;;;7.05;61.90;103022.13;6346722;22;69045;-84
2022/01/23 18:36:35;;;;;;;;;38.25;34.25;;;;;6.82;61.83;102989.63;6326403;22;45831;-86
2022/01/23 18:39:57;;;;;;;;;;;;;;;;;;;;;
2022/01/23 18:45:54;;;;;;;;;39.50;35.75;;;;;6.76;62.16;102982.38;6323612;22;45350;-82
2022/01/23 18:51:47;;;;;;;;;44.75;35.00;;;;;6.80;62.28;102988.66;6341077;22;45330;-82
2022/01/23 18:54:52;;;;;;;;;37.00;32.75;;;;;6.75;62.44;102972.72;6341685;22;45317;-81
2022/01/23 19:01:07;;;;;;;;;;;;;;;;;;;;;
2022/01/23 19:03:46;;;;;;;;;31.75;31.50;;;;;6.79;62.03;102986.84;6337344;22;71962;-81
2022/01/23 19:07:14;;;;;;;;;;;;;;;;;;;;;
2022/01/23 19:09:42;;;;;;;;;35.25;30.25;;;;;6.79;61.77;102979.91;6309055;22;45478;-81
2022/01/23 19:16:13;;;;;;;;;;;;;;;;;;;;;
2022/01/23 19:19:20;;;;;;;;;;;;;;;;;;;;;
2022/01/23 19:22:30;;;;;;;;;;;;;;;;;;;;;
2022/01/23 19:29:28;;;;;;;;;;;;;;;;;;;;;
2022/01/23 19:32:25;;;;;;;;;;;;;;;;;;;;;
2022/01/23 19:35:53;;;;;;;;;;;;;;;;;;;;;
2022/01/23 19:38:24;;;;;;;;;;;;;;;;;;;;;
2022/01/23 19:41:16;;;;;;;;;40.00;34.75;;;;;6.97;61.52;102998.19;6341970;22;72250;-95
2022/01/23 19:47:22;;;;;;;;;45.50;37.25;;;;;6.89;61.58;102983.84;6323828;22;45504;-88
2022/01/23 19:50:04;;;;;;;;;49.50;37.00;;;;;6.76;61.61;102957.91;6350303;22;46230;-94
2022/01/23 19:52:32;;;;;;;;;38.75;34.00;;;;;6.95;61.38;102992.00;6326042;22;44773;-86
2022/01/23 19:55:11;;;;;;;;;39.25;34.50;;;;;7.02;61.41;102990.56;6353378;22;45238;-94
2022/01/23 19:57:50;;;;;;;;;30.75;29.25;;;;;6.99;61.56;102982.56;6356503;22;44898;-93
2022/01/23 20:00:25;;;;;;;;;44.00;37.75;;;;;7.01;61.30;102976.56;6325100;22;46728;-90
2022/01/23 20:02:53;;;;;;;;;50.25;38.75;;;;;7.09;61.33;102986.53;6318240;22;45389;-93
2022/01/23 20:05:28;;;;;;;;;41.25;35.75;;;;;7.09;61.20;102999.63;6345062;22;45362;-90
2022/01/23 20:07:57;;;;;;;;;41.25;34.50;;;;;7.08;60.87;102993.47;6339966;22;45354;-86
2022/01/23 20:11:10;;;;;;;;;45.00;37.75;;;;;7.00;61.53;102980.03;6340634;22;45434;-83
2022/01/23 20:13:16;;;;;;;;;45.75;37.25;;;;;7.04;61.25;102999.41;6335316;22;45447;-85
2022/01/23 20:15:44;;;;;;;;;36.00;33.50;;;;;6.97;61.09;102982.47;6307993;22;45391;-85
2022/01/23 20:18:09;;;;;;;;;38.75;35.00;;;;;6.98;61.19;102991.25;6341632;22;45533;-88
2022/01/23 20:20:35;;;;;;;;;40.75;37.75;;;;;6.94;60.76;102978.84;6338041;22;46432;-85
2022/01/23 20:23:05;;;;;;;;;39.50;36.25;;;;;6.86;60.98;102981.09;6339204;22;45298;-86
2022/01/23 20:25:36;;;;;;;;;52.25;39.75;;;;;6.89;61.15;102980.34;6334166;22;45374;-85
2022/01/23 20:28:04;;;;;;;;;36.00;32.25;;;;;6.85;61.04;102972.34;6312837;22;45462;-85
2022/01/23 20:30:29;;;;;;;;;44.00;38.25;;;;;6.85;60.96;102985.44;6336794;22;45942;-84
2022/01/23 20:33:03;;;;;;;;;48.25;38.00;;;;;6.73;61.15;102978.69;6311419;22;45350;-85
2022/01/23 20:35:31;;;;;;;;;47.50;38.00;;;;;6.67;60.94;102975.78;6318838;22;45669;-84
2022/01/23 20:37:59;;;;;;;;;47.25;37.50;;;;;6.75;61.07;102982.28;6335893;22;45672;-85
2022/01/23 20:40:35;;;;;;;;;42.50;38.50;;;;;6.73;61.20;102986.56;6309766;22;48158;-85
2022/01/23 20:43:03;;;;;;;;;51.00;40.25;;;;;6.53;61.23;102962.03;6309785;22;45476;-84
2022/01/23 20:45:29;;;;;;;;;49.50;38.25;;;;;6.58;60.99;102979.75;6307393;22;45292;-84
2022/01/23 20:48:00;;;;;;;;;43.50;38.25;;;;;6.55;61.22;102982.25;6310353;22;45330;-84
2022/01/23 20:50:34;;;;;;;;;49.50;40.50;;;;;6.41;61.12;102959.72;6334002;22;47524;-82
2022/01/23 20:53:08;;;;;;;;;51.75;40.75;;;;;6.57;61.72;103000.59;6341399;22;45463;-83
2022/01/23 20:55:36;;;;;;;;;44.50;38.25;;;;;6.54;61.37;103000.47;6308871;22;45460;-83
2022/01/23 20:58:03;;;;;;;;;51.25;41.75;;;;;6.53;61.65;102993.44;6338028;22;45472;-87
2022/01/23 21:00:31;;;;;;;;;51.50;39.00;;;;;6.40;61.46;102971.00;6339648;22;46364;-85
2022/01/23 21:02:59;;;;;;;;;52.00;38.50;;;;;6.42;61.54;102973.72;6310653;22;45315;-86
2022/01/23 21:05:27;;;;;;;;;54.50;45.00;;;;;6.41;61.76;102967.56;6314371;22;45740;-86
2022/01/23 21:07:55;;;;;;;;;49.50;39.75;;;;;6.43;61.62;102970.25;6342444;22;45721;-84
2022/01/23 21:10:23;;;;;;;;;57.75;45.00;;;;;6.35;61.90;102960.31;6340724;22;47188;-85
2022/01/23 21:12:52;;;;;;;;;50.50;39.50;;;;;6.38;61.67;102965.69;6310245;22;46144;-86
2022/01/23 21:18:19;;;;;;;;;51.00;40.50;;;;;6.32;61.69;102959.28;6340273;22;45617;-84
2022/01/23 21:21:04;;;;;;;;;56.00;41.25;;;;;6.27;61.79;102950.28;6313245;22;46742;-88
2022/01/23 21:40:04;;;;;;;;;55.50;46.50;;;;;6.19;61.88;102957.75;6216796;22;45305;-88
2022/01/23 21:42:30;;;;;;;;;60.00;44.50;;;;;6.23;61.76;102972.78;6323274;22;46274;-88
2022/01/23 21:44:56;;;;;;;;;53.50;43.75;;;;;6.20;62.22;102975.22;6319053;22;44773;-89
2022/01/23 21:47:22;;;;;;;;;57.00;44.50;;;;;6.08;62.00;102953.72;6315802;22;45429;-89
2022/01/23 21:49:51;;;;;;;;;55.75;43.00;;;;;6.14;62.09;102970.59;6318279;22;45708;-89
2022/01/23 21:52:17;;;;;;;;;54.25;42.50;;;;;6.13;62.20;102965.31;6313428;22;47140;-88
2022/01/23 21:54:45;;;;;;;;;65.50;49.00;;;;;6.00;62.32;102941.97;6314972;22;45376;-88
2022/01/23 21:57:11;;;;;;;;;53.50;43.25;;;;;5.99;62.45;102948.94;6339273;22;45415;-86
2022/01/23 21:59:39;;;;;;;;;57.00;44.50;;;;;5.98;62.38;102957.56;6338958;22;45349;-85
2022/01/23 22:02:06;;;;;;;;;57.25;45.00;;;;;6.00;62.26;102953.31;6337558;22;46573;-84
2022/01/23 22:04:31;;;;;;;;;61.25;45.25;;;;;5.84;62.43;102932.41;6338197;22;45491;-84
2022/01/23 22:06:56;;;;;;;;;56.25;44.75;;;;;5.87;62.33;102945.63;6337927;22;45914;-85
2022/01/23 22:09:25;;;;;;;;;54.00;41.00;;;;;5.94;62.54;102956.53;6337783;22;45400;-85
2022/01/23 22:17:12;;;;;;;;;51.00;41.25;;;;;5.72;62.75;102924.81;6344563;22;45578;-86
2022/01/23 22:19:40;;;;;;;;;57.00;45.25;;;;;5.81;62.52;102951.44;6347795;22;45565;-87
2022/01/23 22:22:32;;;;;;;;;54.75;43.00;;;;;5.70;62.71;102937.84;6347915;22;47875;-86
2022/01/23 22:27:40;;;;;;;;;54.25;43.75;;;;;5.71;63.13;102949.19;6346814;22;45336;-83
2022/01/23 22:30:06;;;;;;;;;59.00;46.75;;;;;5.72;62.72;102957.13;6349388;22;44873;-86
2022/01/23 22:32:34;;;;;;;;;63.75;47.25;;;;;5.76;63.13;102968.59;6347413;22;45303;-87
2022/01/23 22:34:59;;;;;;;;;57.75;48.00;;;;;5.75;63.05;102974.66;6314881;22;45548;-86
2022/01/23 22:37:29;;;;;;;;;65.50;50.50;;;;;5.73;63.38;102971.97;6341611;22;45802;-87
2022/01/23 22:39:54;;;;;;;;;66.00;50.00;;;;;5.68;63.29;102965.59;6338185;22;45392;-86
2022/01/23 22:42:20;;;;;;;;;64.00;50.25;;;;;5.67;63.28;102965.53;6339160;22;47072;-88
2022/01/23 22:47:25;;;;;;;;;61.25;46.25;;;;;5.66;63.29;102974.16;6343209;22;45823;-86